sensor_id;sensor_type;location;lat;lon;timestamp;temperature;humidity
28244;DHT22;15510;52.512;13.300;2024-02-26T00:01:45;6.80;99.90
28244;DHT22;15510;52.512;13.300;2024-02-26T00:04:12;6.80;99.90
28244;DHT22;15510;52.512;13.300;2024-02-26T00:06:39;6.80;99.90
28244;DHT22;15510;52.512;13.300;2024-02-26T00:09:08;6.70;99.90
28244;DHT22;15510;52.512;13.300;2024-02-26T00:11:36;6.60;99.90
28244;DHT22;15510;52.512;13.300;2024-02-26T00:14:02;6.50;99.90
28244;DHT22;15510;52.512;13.300;2024-02-26T00:16:28;6.50;99.90
28244;DHT22;15510;52.512;13.300;2024-02-26T00:18:57;6.50;99.90
28244;DHT22;15510;52.512;13.300;2024-02-26T00:21:23;6.40;99.90
28244;DHT22;15510;52.512;13.300;2024-02-26T00:23:53;6.30;99.90
28244;DHT22;15510;52.512;13.300;2024-02-26T00:26:21;6.20;99.90
28244;DHT22;15510;52.512;13.300;2024-02-26T00:28:49;6.10;99.90
28244;DHT22;15510;52.512;13.300;2024-02-26T00:31:15;6.10;99.90
28244;DHT22;15510;52.512;13.300;2024-02-26T00:33:43;6.10;99.90
28244;DHT22;15510;52.512;13.300;2024-02-26T00:36:09;6.20;99.90
28244;DHT22;15510;52.512;13.300;2024-02-26T00:38:35;6.20;99.90
28244;DHT22;15510;52.512;13.300;2024-02-26T00:41:01;6.30;99.90
28244;DHT22;15510;52.512;13.300;2024-02-26T00:43:27;6.30;99.90
28244;DHT22;15510;52.512;13.300;2024-02-26T00:45:53;6.30;99.90
28244;DHT22;15510;52.512;13.300;2024-02-26T00:48:21;6.20;99.90
28244;DHT22;15510;52.512;13.300;2024-02-26T00:50:46;6.10;99.90
28244;DHT22;15510;52.512;13.300;2024-02-26T00:53:12;6.00;99.90
28244;DHT22;15510;52.512;13.300;2024-02-26T00:55:38;6.00;99.90
28244;DHT22;15510;52.512;13.300;2024-02-26T00:58:04;6.10;99.90
28244;DHT22;15510;52.512;13.300;2024-02-26T01:00:30;6.00;99.90
28244;DHT22;15510;52.512;13.300;2024-02-26T01:02:56;6.00;99.90
28244;DHT22;15510;52.512;13.300;2024-02-26T01:05:22;6.00;99.90
28244;DHT22;15510;52.512;13.300;2024-02-26T01:07:48;6.00;99.90
28244;DHT22;15510;52.512;13.300;2024-02-26T01:10:13;6.00;99.90
28244;DHT22;15510;52.512;13.300;2024-02-26T01:12:39;6.00;99.90
28244;DHT22;15510;52.512;13.300;2024-02-26T01:15:05;6.00;99.90
28244;DHT22;15510;52.512;13.300;2024-02-26T01:17:31;5.90;99.90
28244;DHT22;15510;52.512;13.300;2024-02-26T01:19:57;5.90;99.90
28244;DHT22;15510;52.512;13.300;2024-02-26T01:22:23;5.90;99.90
28244;DHT22;15510;52.512;13.300;2024-02-26T01:24:51;5.90;99.90
28244;DHT22;15510;52.512;13.300;2024-02-26T01:27:20;5.90;99.90
28244;DHT22;15510;52.512;13.300;2024-02-26T01:29:46;5.80;99.90
28244;DHT22;15510;52.512;13.300;2024-02-26T01:32:15;5.90;99.90
28244;DHT22;15510;52.512;13.300;2024-02-26T01:34:40;5.90;99.90
28244;DHT22;15510;52.512;13.300;2024-02-26T01:37:06;5.90;99.90
28244;DHT22;15510;52.512;13.300;2024-02-26T01:39:35;5.90;99.90
28244;DHT22;15510;52.512;13.300;2024-02-26T01:42:01;5.80;99.90
28244;DHT22;15510;52.512;13.300;2024-02-26T01:44:30;5.80;99.90
28244;DHT22;15510;52.512;13.300;2024-02-26T01:46:59;5.70;99.90
28244;DHT22;15510;52.512;13.300;2024-02-26T01:49:27;5.60;99.90
28244;DHT22;15510;52.512;13.300;2024-02-26T01:51:57;5.60;99.90
28244;DHT22;15510;52.512;13.300;2024-02-26T01:54:24;5.60;99.90
28244;DHT22;15510;52.512;13.300;2024-02-26T01:56:50;5.50;99.90
28244;DHT22;15510;52.512;13.300;2024-02-26T01:59:16;5.50;99.90
28244;DHT22;15510;52.512;13.300;2024-02-26T02:01:44;5.50;99.90
28244;DHT22;15510;52.512;13.300;2024-02-26T02:04:11;5.50;99.90
28244;DHT22;15510;52.512;13.300;2024-02-26T02:06:38;5.50;99.90
28244;DHT22;15510;52.512;13.300;2024-02-26T02:09:03;5.50;99.90
28244;DHT22;15510;52.512;13.300;2024-02-26T02:11:33;5.50;99.90
28244;DHT22;15510;52.512;13.300;2024-02-26T02:13:59;5.50;99.90
28244;DHT22;15510;52.512;13.300;2024-02-26T02:16:25;5.40;99.90
28244;DHT22;15510;52.512;13.300;2024-02-26T02:18:51;5.30;99.90
28244;DHT22;15510;52.512;13.300;2024-02-26T02:21:19;5.30;99.90
28244;DHT22;15510;52.512;13.300;2024-02-26T02:23:45;5.40;99.90
28244;DHT22;15510;52.512;13.300;2024-02-26T02:26:15;5.30;99.90
28244;DHT22;15510;52.512;13.300;2024-02-26T02:28:41;5.30;99.90
28244;DHT22;15510;52.512;13.300;2024-02-26T02:31:10;5.30;99.90
28244;DHT22;15510;52.512;13.300;2024-02-26T02:33:39;5.30;99.90
28244;DHT22;15510;52.512;13.300;2024-02-26T02:36:05;5.20;99.90
28244;DHT22;15510;52.512;13.300;2024-02-26T02:38:34;5.20;99.90
28244;DHT22;15510;52.512;13.300;2024-02-26T02:41:00;5.20;99.90
28244;DHT22;15510;52.512;13.300;2024-02-26T02:43:26;5.20;99.90
28244;DHT22;15510;52.512;13.300;2024-02-26T02:45:52;5.20;99.90
28244;DHT22;15510;52.512;13.300;2024-02-26T02:48:18;5.20;99.90
28244;DHT22;15510;52.512;13.300;2024-02-26T02:50:49;5.20;99.90
28244;DHT22;15510;52.512;13.300;2024-02-26T02:53:15;5.20;99.90
28244;DHT22;15510;52.512;13.300;2024-02-26T02:55:41;5.20;99.90
28244;DHT22;15510;52.512;13.300;2024-02-26T02:58:10;5.10;99.90
28244;DHT22;15510;52.512;13.300;2024-02-26T03:00:36;5.10;99.90
28244;DHT22;15510;52.512;13.300;2024-02-26T03:03:02;5.10;99.90
28244;DHT22;15510;52.512;13.300;2024-02-26T03:05:29;5.10;99.90
28244;DHT22;15510;52.512;13.300;2024-02-26T03:07:55;5.20;99.90
28244;DHT22;15510;52.512;13.300;2024-02-26T03:10:21;5.40;99.90
28244;DHT22;15510;52.512;13.300;2024-02-26T03:12:46;5.50;99.90
28244;DHT22;15510;52.512;13.300;2024-02-26T03:15:15;5.40;99.90
28244;DHT22;15510;52.512;13.300;2024-02-26T03:17:41;5.40;99.90
28244;DHT22;15510;52.512;13.300;2024-02-26T03:20:10;5.40;99.90
28244;DHT22;15510;52.512;13.300;2024-02-26T03:22:38;5.40;99.90
28244;DHT22;15510;52.512;13.300;2024-02-26T03:25:04;5.30;99.90
28244;DHT22;15510;52.512;13.300;2024-02-26T03:27:30;5.30;99.90
28244;DHT22;15510;52.512;13.300;2024-02-26T03:29:55;5.30;99.90
28244;DHT22;15510;52.512;13.300;2024-02-26T03:32:27;5.30;99.90
28244;DHT22;15510;52.512;13.300;2024-02-26T03:34:56;5.30;99.90
28244;DHT22;15510;52.512;13.300;2024-02-26T03:37:24;5.30;99.90
28244;DHT22;15510;52.512;13.300;2024-02-26T03:39:50;5.30;99.90
28244;DHT22;15510;52.512;13.300;2024-02-26T03:42:16;5.40;99.90
28244;DHT22;15510;52.512;13.300;2024-02-26T03:44:42;5.50;99.90
28244;DHT22;15510;52.512;13.300;2024-02-26T03:47:08;5.50;99.90
28244;DHT22;15510;52.512;13.300;2024-02-26T03:49:39;5.50;99.90
28244;DHT22;15510;52.512;13.300;2024-02-26T03:52:05;5.60;99.90
28244;DHT22;15510;52.512;13.300;2024-02-26T03:54:31;5.60;99.90
28244;DHT22;15510;52.512;13.300;2024-02-26T03:56:57;5.60;99.90
28244;DHT22;15510;52.512;13.300;2024-02-26T03:59:26;5.60;99.90
28244;DHT22;15510;52.512;13.300;2024-02-26T04:01:52;5.60;99.90
28244;DHT22;15510;52.512;13.300;2024-02-26T04:04:18;5.60;99.90
28244;DHT22;15510;52.512;13.300;2024-02-26T04:06:47;5.60;99.90
28244;DHT22;15510;52.512;13.300;2024-02-26T04:09:16;5.50;99.90
28244;DHT22;15510;52.512;13.300;2024-02-26T04:11:42;5.50;99.90
28244;DHT22;15510;52.512;13.300;2024-02-26T04:14:19;5.50;99.90
28244;DHT22;15510;52.512;13.300;2024-02-26T04:16:45;5.50;99.90
28244;DHT22;15510;52.512;13.300;2024-02-26T04:19:10;5.50;99.90
28244;DHT22;15510;52.512;13.300;2024-02-26T04:21:36;5.50;99.90
28244;DHT22;15510;52.512;13.300;2024-02-26T04:24:02;5.60;99.90
28244;DHT22;15510;52.512;13.300;2024-02-26T04:26:31;5.40;99.90
28244;DHT22;15510;52.512;13.300;2024-02-26T04:28:57;5.40;99.90
28244;DHT22;15510;52.512;13.300;2024-02-26T04:31:25;5.40;99.90
28244;DHT22;15510;52.512;13.300;2024-02-26T04:33:55;5.40;99.90
28244;DHT22;15510;52.512;13.300;2024-02-26T04:36:26;5.40;99.90
28244;DHT22;15510;52.512;13.300;2024-02-26T04:38:52;5.40;99.90
28244;DHT22;15510;52.512;13.300;2024-02-26T04:41:21;5.40;99.90
28244;DHT22;15510;52.512;13.300;2024-02-26T04:43:46;5.40;99.90
28244;DHT22;15510;52.512;13.300;2024-02-26T04:46:12;5.30;99.90
28244;DHT22;15510;52.512;13.300;2024-02-26T04:48:38;5.30;99.90
28244;DHT22;15510;52.512;13.300;2024-02-26T04:51:04;5.30;99.90
28244;DHT22;15510;52.512;13.300;2024-02-26T04:53:37;5.20;99.90
28244;DHT22;15510;52.512;13.300;2024-02-26T04:56:04;5.20;99.90
28244;DHT22;15510;52.512;13.300;2024-02-26T04:58:30;5.20;99.90
28244;DHT22;15510;52.512;13.300;2024-02-26T05:00:56;5.20;99.90
28244;DHT22;15510;52.512;13.300;2024-02-26T05:03:21;5.20;99.90
28244;DHT22;15510;52.512;13.300;2024-02-26T05:05:54;5.20;99.90
28244;DHT22;15510;52.512;13.300;2024-02-26T05:08:22;5.10;99.90
28244;DHT22;15510;52.512;13.300;2024-02-26T05:10:48;5.10;99.90
28244;DHT22;15510;52.512;13.300;2024-02-26T05:13:14;5.00;99.90
28244;DHT22;15510;52.512;13.300;2024-02-26T05:15:41;5.00;99.90
28244;DHT22;15510;52.512;13.300;2024-02-26T05:18:07;4.90;99.90
28244;DHT22;15510;52.512;13.300;2024-02-26T05:20:33;4.70;99.90
28244;DHT22;15510;52.512;13.300;2024-02-26T05:23:01;4.70;99.90
28244;DHT22;15510;52.512;13.300;2024-02-26T05:25:27;4.70;99.90
28244;DHT22;15510;52.512;13.300;2024-02-26T05:27:53;4.70;99.90
28244;DHT22;15510;52.512;13.300;2024-02-26T05:30:19;4.70;99.90
28244;DHT22;15510;52.512;13.300;2024-02-26T05:32:45;4.70;99.90
28244;DHT22;15510;52.512;13.300;2024-02-26T05:35:13;4.70;99.90
28244;DHT22;15510;52.512;13.300;2024-02-26T05:37:38;4.60;99.90
28244;DHT22;15510;52.512;13.300;2024-02-26T05:40:05;4.50;99.90
28244;DHT22;15510;52.512;13.300;2024-02-26T05:42:31;4.50;99.90
28244;DHT22;15510;52.512;13.300;2024-02-26T05:44:57;4.60;99.90
28244;DHT22;15510;52.512;13.300;2024-02-26T05:47:23;4.60;99.90
28244;DHT22;15510;52.512;13.300;2024-02-26T05:49:49;4.50;99.90
28244;DHT22;15510;52.512;13.300;2024-02-26T05:52:15;4.50;99.90
28244;DHT22;15510;52.512;13.300;2024-02-26T05:54:40;4.50;99.90
28244;DHT22;15510;52.512;13.300;2024-02-26T05:57:06;4.40;99.90
28244;DHT22;15510;52.512;13.300;2024-02-26T05:59:35;4.40;99.90
28244;DHT22;15510;52.512;13.300;2024-02-26T06:02:00;4.40;99.90
28244;DHT22;15510;52.512;13.300;2024-02-26T06:04:26;4.30;99.90
28244;DHT22;15510;52.512;13.300;2024-02-26T06:06:52;4.30;99.90
28244;DHT22;15510;52.512;13.300;2024-02-26T06:09:18;4.30;99.90
28244;DHT22;15510;52.512;13.300;2024-02-26T06:11:43;4.30;99.90
28244;DHT22;15510;52.512;13.300;2024-02-26T06:14:09;4.30;99.90
28244;DHT22;15510;52.512;13.300;2024-02-26T06:16:35;4.30;99.90
28244;DHT22;15510;52.512;13.300;2024-02-26T06:19:01;4.30;99.90
28244;DHT22;15510;52.512;13.300;2024-02-26T06:21:27;4.30;99.90
28244;DHT22;15510;52.512;13.300;2024-02-26T06:23:53;4.30;99.90
28244;DHT22;15510;52.512;13.300;2024-02-26T06:26:19;4.30;99.90
28244;DHT22;15510;52.512;13.300;2024-02-26T06:28:54;4.30;99.90
28244;DHT22;15510;52.512;13.300;2024-02-26T06:31:21;4.30;99.90
28244;DHT22;15510;52.512;13.300;2024-02-26T06:33:49;4.30;99.90
28244;DHT22;15510;52.512;13.300;2024-02-26T06:36:16;4.30;99.90
28244;DHT22;15510;52.512;13.300;2024-02-26T06:38:41;4.40;99.90
28244;DHT22;15510;52.512;13.300;2024-02-26T06:41:07;4.40;99.90
28244;DHT22;15510;52.512;13.300;2024-02-26T06:43:33;4.50;99.90
28244;DHT22;15510;52.512;13.300;2024-02-26T06:45:59;4.50;99.90
28244;DHT22;15510;52.512;13.300;2024-02-26T06:48:25;4.60;99.90
28244;DHT22;15510;52.512;13.300;2024-02-26T06:50:50;4.60;99.90
28244;DHT22;15510;52.512;13.300;2024-02-26T06:53:16;4.60;99.90
28244;DHT22;15510;52.512;13.300;2024-02-26T06:55:42;4.60;99.90
28244;DHT22;15510;52.512;13.300;2024-02-26T06:58:09;4.70;99.90
28244;DHT22;15510;52.512;13.300;2024-02-26T07:00:35;4.80;99.90
28244;DHT22;15510;52.512;13.300;2024-02-26T07:03:01;4.80;99.90
28244;DHT22;15510;52.512;13.300;2024-02-26T07:05:27;4.80;99.90
28244;DHT22;15510;52.512;13.300;2024-02-26T07:07:53;4.90;99.90
28244;DHT22;15510;52.512;13.300;2024-02-26T07:10:19;5.00;99.90
28244;DHT22;15510;52.512;13.300;2024-02-26T07:12:45;5.00;99.90
28244;DHT22;15510;52.512;13.300;2024-02-26T07:15:10;5.10;99.90
28244;DHT22;15510;52.512;13.300;2024-02-26T07:17:36;5.20;99.90
28244;DHT22;15510;52.512;13.300;2024-02-26T07:20:02;5.30;99.90
28244;DHT22;15510;52.512;13.300;2024-02-26T07:22:31;5.40;99.90
28244;DHT22;15510;52.512;13.300;2024-02-26T07:24:57;5.50;99.90
28244;DHT22;15510;52.512;13.300;2024-02-26T07:27:23;5.60;99.90
28244;DHT22;15510;52.512;13.300;2024-02-26T07:29:49;5.70;99.90
28244;DHT22;15510;52.512;13.300;2024-02-26T07:32:14;5.80;99.90
28244;DHT22;15510;52.512;13.300;2024-02-26T07:34:41;5.90;99.90
28244;DHT22;15510;52.512;13.300;2024-02-26T07:37:08;5.90;99.90
28244;DHT22;15510;52.512;13.300;2024-02-26T07:39:33;6.00;99.90
28244;DHT22;15510;52.512;13.300;2024-02-26T07:41:59;6.20;99.90
28244;DHT22;15510;52.512;13.300;2024-02-26T07:44:25;6.30;99.90
28244;DHT22;15510;52.512;13.300;2024-02-26T07:46:51;6.30;99.90
28244;DHT22;15510;52.512;13.300;2024-02-26T07:49:16;6.40;99.90
28244;DHT22;15510;52.512;13.300;2024-02-26T07:51:42;6.50;99.90
28244;DHT22;15510;52.512;13.300;2024-02-26T07:54:08;6.60;99.90
28244;DHT22;15510;52.512;13.300;2024-02-26T07:56:33;6.70;99.90
28244;DHT22;15510;52.512;13.300;2024-02-26T07:58:59;6.80;99.90
28244;DHT22;15510;52.512;13.300;2024-02-26T08:01:25;6.90;99.90
28244;DHT22;15510;52.512;13.300;2024-02-26T08:03:55;7.00;99.90
28244;DHT22;15510;52.512;13.300;2024-02-26T08:06:21;7.10;99.90
28244;DHT22;15510;52.512;13.300;2024-02-26T08:08:47;7.20;99.90
28244;DHT22;15510;52.512;13.300;2024-02-26T08:11:15;7.30;99.90
28244;DHT22;15510;52.512;13.300;2024-02-26T08:13:41;7.30;99.90
28244;DHT22;15510;52.512;13.300;2024-02-26T08:16:07;7.40;99.90
28244;DHT22;15510;52.512;13.300;2024-02-26T08:18:33;7.40;99.90
28244;DHT22;15510;52.512;13.300;2024-02-26T08:20:59;7.50;99.90
28244;DHT22;15510;52.512;13.300;2024-02-26T08:23:24;7.50;99.90
28244;DHT22;15510;52.512;13.300;2024-02-26T08:25:51;7.60;99.90
28244;DHT22;15510;52.512;13.300;2024-02-26T08:28:17;7.60;99.90
28244;DHT22;15510;52.512;13.300;2024-02-26T08:30:44;7.80;99.90
28244;DHT22;15510;52.512;13.300;2024-02-26T08:33:09;7.90;99.90
28244;DHT22;15510;52.512;13.300;2024-02-26T08:35:36;8.00;99.90
28244;DHT22;15510;52.512;13.300;2024-02-26T08:38:01;8.00;99.90
28244;DHT22;15510;52.512;13.300;2024-02-26T08:40:28;8.10;99.90
28244;DHT22;15510;52.512;13.300;2024-02-26T08:42:54;8.20;99.90
28244;DHT22;15510;52.512;13.300;2024-02-26T08:45:21;8.30;99.90
28244;DHT22;15510;52.512;13.300;2024-02-26T08:47:47;8.40;99.90
28244;DHT22;15510;52.512;13.300;2024-02-26T08:50:14;8.50;99.90
28244;DHT22;15510;52.512;13.300;2024-02-26T08:52:40;8.60;99.90
28244;DHT22;15510;52.512;13.300;2024-02-26T08:55:06;8.60;99.90
28244;DHT22;15510;52.512;13.300;2024-02-26T08:57:34;8.70;99.90
28244;DHT22;15510;52.512;13.300;2024-02-26T09:00:01;8.80;99.90
28244;DHT22;15510;52.512;13.300;2024-02-26T09:02:26;8.90;99.90
28244;DHT22;15510;52.512;13.300;2024-02-26T09:04:52;8.90;99.90
28244;DHT22;15510;52.512;13.300;2024-02-26T09:07:21;9.10;99.90
28244;DHT22;15510;52.512;13.300;2024-02-26T09:09:46;9.20;99.90
28244;DHT22;15510;52.512;13.300;2024-02-26T09:12:12;9.30;99.90
28244;DHT22;15510;52.512;13.300;2024-02-26T09:14:38;9.40;99.90
28244;DHT22;15510;52.512;13.300;2024-02-26T09:17:03;9.50;99.90
28244;DHT22;15510;52.512;13.300;2024-02-26T09:19:31;9.60;99.90
28244;DHT22;15510;52.512;13.300;2024-02-26T09:21:56;9.70;99.90
28244;DHT22;15510;52.512;13.300;2024-02-26T09:24:24;9.80;99.90
28244;DHT22;15510;52.512;13.300;2024-02-26T09:26:50;9.80;99.90
28244;DHT22;15510;52.512;13.300;2024-02-26T09:29:16;9.70;99.90
28244;DHT22;15510;52.512;13.300;2024-02-26T09:31:41;9.70;99.90
28244;DHT22;15510;52.512;13.300;2024-02-26T09:34:07;9.60;99.90
28244;DHT22;15510;52.512;13.300;2024-02-26T09:36:34;9.60;99.90
28244;DHT22;15510;52.512;13.300;2024-02-26T09:38:59;9.60;99.90
28244;DHT22;15510;52.512;13.300;2024-02-26T09:41:28;9.70;99.90
28244;DHT22;15510;52.512;13.300;2024-02-26T09:43:56;9.60;99.90
28244;DHT22;15510;52.512;13.300;2024-02-26T09:46:25;9.50;99.90
28244;DHT22;15510;52.512;13.300;2024-02-26T09:48:51;9.60;99.90
28244;DHT22;15510;52.512;13.300;2024-02-26T09:51:18;9.70;99.90
28244;DHT22;15510;52.512;13.300;2024-02-26T09:53:44;9.70;99.90
28244;DHT22;15510;52.512;13.300;2024-02-26T09:56:12;9.70;99.90
28244;DHT22;15510;52.512;13.300;2024-02-26T09:58:39;9.80;99.90
28244;DHT22;15510;52.512;13.300;2024-02-26T10:01:13;9.80;99.90
28244;DHT22;15510;52.512;13.300;2024-02-26T10:03:41;9.90;99.90
28244;DHT22;15510;52.512;13.300;2024-02-26T10:06:08;10.00;99.90
28244;DHT22;15510;52.512;13.300;2024-02-26T10:08:35;10.10;99.90
28244;DHT22;15510;52.512;13.300;2024-02-26T10:11:05;10.10;99.90
28244;DHT22;15510;52.512;13.300;2024-02-26T10:13:32;10.20;99.90
28244;DHT22;15510;52.512;13.300;2024-02-26T10:15:58;10.20;99.90
28244;DHT22;15510;52.512;13.300;2024-02-26T10:18:24;10.30;99.90
28244;DHT22;15510;52.512;13.300;2024-02-26T10:21:03;10.40;99.90
28244;DHT22;15510;52.512;13.300;2024-02-26T10:23:29;10.40;99.90
28244;DHT22;15510;52.512;13.300;2024-02-26T10:25:55;10.50;99.90
28244;DHT22;15510;52.512;13.300;2024-02-26T10:28:22;10.60;99.90
28244;DHT22;15510;52.512;13.300;2024-02-26T10:30:48;10.60;99.90
28244;DHT22;15510;52.512;13.300;2024-02-26T10:33:13;10.60;99.90
28244;DHT22;15510;52.512;13.300;2024-02-26T10:35:45;10.80;99.90
28244;DHT22;15510;52.512;13.300;2024-02-26T10:38:10;10.80;99.90
28244;DHT22;15510;52.512;13.300;2024-02-26T10:40:37;10.90;99.90
28244;DHT22;15510;52.512;13.300;2024-02-26T10:43:03;11.10;99.90
28244;DHT22;15510;52.512;13.300;2024-02-26T10:45:28;11.20;99.90
28244;DHT22;15510;52.512;13.300;2024-02-26T10:47:54;11.30;99.90
28244;DHT22;15510;52.512;13.300;2024-02-26T10:50:20;11.20;99.90
28244;DHT22;15510;52.512;13.300;2024-02-26T10:52:45;11.20;99.90
28244;DHT22;15510;52.512;13.300;2024-02-26T10:55:17;11.30;99.90
28244;DHT22;15510;52.512;13.300;2024-02-26T10:57:45;11.40;99.90
28244;DHT22;15510;52.512;13.300;2024-02-26T11:00:14;11.50;99.90
28244;DHT22;15510;52.512;13.300;2024-02-26T11:02:41;11.50;99.90
28244;DHT22;15510;52.512;13.300;2024-02-26T11:05:08;11.50;99.90
28244;DHT22;15510;52.512;13.300;2024-02-26T11:07:34;11.60;99.90
28244;DHT22;15510;52.512;13.300;2024-02-26T11:10:03;11.60;99.90
28244;DHT22;15510;52.512;13.300;2024-02-26T11:12:31;11.70;99.90
28244;DHT22;15510;52.512;13.300;2024-02-26T11:14:57;11.90;99.90
28244;DHT22;15510;52.512;13.300;2024-02-26T11:17:28;12.00;99.90
28244;DHT22;15510;52.512;13.300;2024-02-26T11:19:58;12.20;99.90
28244;DHT22;15510;52.512;13.300;2024-02-26T11:22:27;12.30;99.90
28244;DHT22;15510;52.512;13.300;2024-02-26T11:24:54;12.50;99.90
28244;DHT22;15510;52.512;13.300;2024-02-26T11:27:38;12.60;99.90
28244;DHT22;15510;52.512;13.300;2024-02-26T11:30:09;12.80;99.90
28244;DHT22;15510;52.512;13.300;2024-02-26T11:32:35;12.80;99.90
28244;DHT22;15510;52.512;13.300;2024-02-26T11:35:02;12.80;99.90
28244;DHT22;15510;52.512;13.300;2024-02-26T11:37:29;12.90;99.90
28244;DHT22;15510;52.512;13.300;2024-02-26T11:39:59;12.90;99.90
28244;DHT22;15510;52.512;13.300;2024-02-26T11:42:26;12.90;99.90
28244;DHT22;15510;52.512;13.300;2024-02-26T11:44:54;13.10;99.90
28244;DHT22;15510;52.512;13.300;2024-02-26T11:47:22;13.10;99.90
28244;DHT22;15510;52.512;13.300;2024-02-26T11:49:48;13.10;99.90
28244;DHT22;15510;52.512;13.300;2024-02-26T11:52:15;13.10;99.90
28244;DHT22;15510;52.512;13.300;2024-02-26T11:54:53;13.20;99.90
28244;DHT22;15510;52.512;13.300;2024-02-26T11:59:53;13.10;99.90
28244;DHT22;15510;52.512;13.300;2024-02-26T12:02:45;13.00;99.90
28244;DHT22;15510;52.512;13.300;2024-02-26T12:05:15;12.80;99.90
28244;DHT22;15510;52.512;13.300;2024-02-26T12:07:47;12.80;99.90
28244;DHT22;15510;52.512;13.300;2024-02-26T12:13:02;13.00;99.90
28244;DHT22;15510;52.512;13.300;2024-02-26T12:15:32;13.00;99.90
28244;DHT22;15510;52.512;13.300;2024-02-26T12:18:01;13.10;99.90
28244;DHT22;15510;52.512;13.300;2024-02-26T12:20:28;13.20;99.90
28244;DHT22;15510;52.512;13.300;2024-02-26T12:22:54;13.20;99.90
28244;DHT22;15510;52.512;13.300;2024-02-26T12:25:26;13.20;99.90
28244;DHT22;15510;52.512;13.300;2024-02-26T12:27:55;13.10;99.90
28244;DHT22;15510;52.512;13.300;2024-02-26T12:30:22;13.20;99.90
28244;DHT22;15510;52.512;13.300;2024-02-26T12:32:52;13.40;99.90
28244;DHT22;15510;52.512;13.300;2024-02-26T12:35:18;13.60;99.90
28244;DHT22;15510;52.512;13.300;2024-02-26T12:37:44;13.60;99.90
28244;DHT22;15510;52.512;13.300;2024-02-26T12:40:11;13.60;99.90
28244;DHT22;15510;52.512;13.300;2024-02-26T12:42:37;13.80;99.90
28244;DHT22;15510;52.512;13.300;2024-02-26T12:45:08;14.00;99.90
28244;DHT22;15510;52.512;13.300;2024-02-26T12:47:38;13.80;99.90
28244;DHT22;15510;52.512;13.300;2024-02-26T12:50:05;13.80;99.90
28244;DHT22;15510;52.512;13.300;2024-02-26T12:52:33;13.60;99.90
28244;DHT22;15510;52.512;13.300;2024-02-26T12:54:59;13.50;99.90
28244;DHT22;15510;52.512;13.300;2024-02-26T12:57:25;13.40;99.90
28244;DHT22;15510;52.512;13.300;2024-02-26T12:59:52;13.40;99.90
28244;DHT22;15510;52.512;13.300;2024-02-26T13:02:18;13.40;99.90
28244;DHT22;15510;52.512;13.300;2024-02-26T13:04:44;13.50;99.90
28244;DHT22;15510;52.512;13.300;2024-02-26T13:07:10;13.60;99.90
28244;DHT22;15510;52.512;13.300;2024-02-26T13:09:36;13.60;99.90
28244;DHT22;15510;52.512;13.300;2024-02-26T13:12:04;13.60;99.90
28244;DHT22;15510;52.512;13.300;2024-02-26T13:14:31;13.70;99.90
28244;DHT22;15510;52.512;13.300;2024-02-26T13:16:57;13.80;99.90
28244;DHT22;15510;52.512;13.300;2024-02-26T13:19:23;13.80;99.90
28244;DHT22;15510;52.512;13.300;2024-02-26T13:21:49;13.70;99.90
28244;DHT22;15510;52.512;13.300;2024-02-26T13:24:15;13.70;99.90
28244;DHT22;15510;52.512;13.300;2024-02-26T13:26:42;13.60;99.90
28244;DHT22;15510;52.512;13.300;2024-02-26T13:29:08;13.50;99.90
28244;DHT22;15510;52.512;13.300;2024-02-26T13:31:40;13.50;99.90
28244;DHT22;15510;52.512;13.300;2024-02-26T13:34:06;13.50;99.90
28244;DHT22;15510;52.512;13.300;2024-02-26T13:36:31;13.50;99.90
28244;DHT22;15510;52.512;13.300;2024-02-26T13:38:57;13.50;99.90
28244;DHT22;15510;52.512;13.300;2024-02-26T13:41:23;13.50;99.90
28244;DHT22;15510;52.512;13.300;2024-02-26T13:43:55;13.50;99.90
28244;DHT22;15510;52.512;13.300;2024-02-26T13:46:23;13.40;99.90
28244;DHT22;15510;52.512;13.300;2024-02-26T13:48:49;13.30;99.90
28244;DHT22;15510;52.512;13.300;2024-02-26T13:51:15;13.30;99.90
28244;DHT22;15510;52.512;13.300;2024-02-26T13:53:50;13.10;99.90
28244;DHT22;15510;52.512;13.300;2024-02-26T13:56:16;13.10;99.90
28244;DHT22;15510;52.512;13.300;2024-02-26T13:58:44;13.00;99.90
28244;DHT22;15510;52.512;13.300;2024-02-26T14:01:10;12.90;99.90
28244;DHT22;15510;52.512;13.300;2024-02-26T14:03:36;12.90;99.90
28244;DHT22;15510;52.512;13.300;2024-02-26T14:06:01;13.00;99.90
28244;DHT22;15510;52.512;13.300;2024-02-26T14:08:30;13.00;99.90
28244;DHT22;15510;52.512;13.300;2024-02-26T14:10:56;13.00;99.90
28244;DHT22;15510;52.512;13.300;2024-02-26T14:13:22;13.00;99.90
28244;DHT22;15510;52.512;13.300;2024-02-26T14:15:47;12.90;99.90
28244;DHT22;15510;52.512;13.300;2024-02-26T14:18:13;12.90;99.90
28244;DHT22;15510;52.512;13.300;2024-02-26T14:20:39;12.80;99.90
28244;DHT22;15510;52.512;13.300;2024-02-26T14:23:06;12.80;99.90
28244;DHT22;15510;52.512;13.300;2024-02-26T14:25:32;12.80;99.90
28244;DHT22;15510;52.512;13.300;2024-02-26T14:27:58;12.80;99.90
28244;DHT22;15510;52.512;13.300;2024-02-26T14:30:25;12.80;99.90
28244;DHT22;15510;52.512;13.300;2024-02-26T14:32:51;12.80;99.90
28244;DHT22;15510;52.512;13.300;2024-02-26T14:35:17;12.80;99.90
28244;DHT22;15510;52.512;13.300;2024-02-26T14:37:44;12.80;99.90
28244;DHT22;15510;52.512;13.300;2024-02-26T14:40:13;12.70;99.90
28244;DHT22;15510;52.512;13.300;2024-02-26T14:42:42;12.70;99.90
28244;DHT22;15510;52.512;13.300;2024-02-26T14:45:08;12.60;99.90
28244;DHT22;15510;52.512;13.300;2024-02-26T14:47:35;12.60;99.90
28244;DHT22;15510;52.512;13.300;2024-02-26T14:50:07;12.60;99.90
28244;DHT22;15510;52.512;13.300;2024-02-26T14:52:33;12.60;99.90
28244;DHT22;15510;52.512;13.300;2024-02-26T14:55:00;12.60;99.90
28244;DHT22;15510;52.512;13.300;2024-02-26T14:57:26;12.70;99.90
28244;DHT22;15510;52.512;13.300;2024-02-26T14:59:54;12.60;99.90
28244;DHT22;15510;52.512;13.300;2024-02-26T15:02:23;12.50;99.90
28244;DHT22;15510;52.512;13.300;2024-02-26T15:04:51;12.40;99.90
28244;DHT22;15510;52.512;13.300;2024-02-26T15:07:17;12.30;99.90
28244;DHT22;15510;52.512;13.300;2024-02-26T15:09:42;12.30;99.90
28244;DHT22;15510;52.512;13.300;2024-02-26T15:12:09;12.40;99.90
28244;DHT22;15510;52.512;13.300;2024-02-26T15:14:36;12.20;99.90
28244;DHT22;15510;52.512;13.300;2024-02-26T15:17:02;12.10;99.90
28244;DHT22;15510;52.512;13.300;2024-02-26T15:19:28;12.10;99.90
28244;DHT22;15510;52.512;13.300;2024-02-26T15:21:54;12.10;99.90
28244;DHT22;15510;52.512;13.300;2024-02-26T15:24:22;12.10;99.90
28244;DHT22;15510;52.512;13.300;2024-02-26T15:26:48;12.00;99.90
28244;DHT22;15510;52.512;13.300;2024-02-26T15:29:14;12.00;99.90